ROMMA est une association bénévole à but non lucratif. Votre soutien est indispensable : ADHERER à ROMMA ou FAIRE un DON

Saint-Martin-d'Hères - (38, Isère)

Vallée du Grésivaudan (220 m)   Longitude: 05° 45' 05" E   Latitude: 45° 10' 02" N Station partenaire n°4
 

Détail journalier du     <<     >>

Température Precipitation Humidité Pression Vent Dir Rafale Dir. rafale Ensol.
Heure (°C) (mm) (%) (hPa) (km/h) (km/h) (min)
01:00 11.408410233SSE10SSO0
02:00 10.608610231SSO6SSO0
03:00 10.208810232S10SSE0
04:00 10.308810233S10SE0
05:00 10.308910231SSE6S0
06:00 10.608810232SSO8SSO0
07:00 10.9088102306SSO0
08:00 10.8088102300---0
09:00 11.0088102305SSO0
10:00 11.9085102305SSO0
11:00 12.9082102308NO0
12:00 15.207310222NO10NNO60
13:00 16.506610213NO10NO50
14:00 18.206110192NO10NO50
15:00 18.306110181---10NO10
16:00 19.705910182SSE15ONO60
17:00 18.906110173N16NO60
18:00 15.507110185S19S10
19:00 13.407810184S18SSO0
20:00 12.408210184S19SSO0
21:00 11.808410181S19S0
22:00 11.40861018011SSE0
23:00 11.6086101900---0
minuit 11.4086101800---0

Graphique du 25-10-2018

 

Serveur OMMA